createdAt,value
2023-04-12T00:01:33.281Z,81.93
2023-04-12T00:04:04.398Z,82.08
2023-04-12T00:06:35.091Z,82.05
2023-04-12T00:09:04.316Z,81.98
2023-04-12T00:11:32.742Z,82.26
2023-04-12T00:14:00.323Z,82.37
2023-04-12T00:16:28.052Z,82.25
2023-04-12T00:18:57.333Z,82.37
2023-04-12T00:21:28.913Z,82.29
2023-04-12T00:23:57.249Z,82.46
2023-04-12T00:26:25.535Z,82.45
2023-04-12T00:28:53.108Z,82.37
2023-04-12T00:31:21.046Z,82.57
2023-04-12T00:33:48.717Z,82.79
2023-04-12T00:36:16.438Z,82.76
2023-04-12T00:38:45.920Z,82.74
2023-04-12T00:41:16.483Z,82.86
2023-04-12T00:43:50.045Z,82.91
2023-04-12T00:46:19.869Z,83.08
2023-04-12T00:48:48.614Z,83.18
2023-04-12T00:51:22.737Z,83.38
2023-04-12T00:53:58.697Z,83.42
2023-04-12T00:56:34.536Z,83.46
2023-04-12T00:59:02.964Z,83.46
2023-04-12T01:01:32.024Z,83.89
2023-04-12T01:04:01.497Z,83.92
2023-04-12T01:07:01.663Z,84.30
2023-04-12T01:09:57.112Z,84.03
2023-04-12T01:12:55.548Z,84.16
2023-04-12T01:15:24.425Z,84.41
2023-04-12T01:18:17.711Z,84.23
2023-04-12T01:20:54.842Z,84.49
2023-04-12T01:23:54.366Z,84.65
2023-04-12T01:26:44.244Z,84.92
2023-04-12T01:29:17.658Z,85.05
2023-04-12T01:31:54.303Z,85.16
2023-04-12T01:34:25.171Z,85.51
2023-04-12T01:36:53.699Z,85.31
2023-04-12T01:39:21.472Z,85.43
2023-04-12T01:41:49.224Z,85.52
2023-04-12T01:44:18.028Z,85.70
2023-04-12T01:46:47.506Z,85.54
2023-04-12T01:49:17.451Z,85.54
2023-04-12T01:52:18.880Z,85.58
2023-04-12T01:54:50.693Z,85.81
2023-04-12T01:57:22.796Z,85.83
2023-04-12T01:59:51.709Z,85.45
2023-04-12T02:02:20.090Z,85.29
2023-04-12T02:04:48.796Z,85.23
2023-04-12T02:07:20.540Z,85.23
2023-04-12T02:09:48.212Z,85.32
2023-04-12T02:12:16.028Z,85.19
2023-04-12T02:14:43.786Z,84.83
2023-04-12T02:17:13.136Z,84.54
2023-04-12T02:19:41.027Z,84.44
2023-04-12T02:22:11.408Z,84.18
2023-04-12T02:24:39.048Z,83.86
2023-04-12T02:27:06.733Z,83.40
2023-04-12T02:29:34.375Z,83.02
2023-04-12T02:32:01.949Z,82.61
2023-04-12T02:34:34.351Z,82.07
2023-04-12T02:37:02.020Z,81.55
2023-04-12T02:39:32.184Z,81.12
2023-04-12T02:41:59.896Z,79.98
2023-04-12T02:44:31.085Z,79.52
2023-04-12T02:47:00.760Z,79.04
2023-04-12T02:49:28.328Z,78.87
2023-04-12T02:51:56.373Z,78.73
2023-04-12T02:54:23.951Z,78.75
2023-04-12T02:56:51.537Z,78.94
2023-04-12T02:59:19.168Z,78.69
2023-04-12T03:01:47.003Z,79.12
2023-04-12T03:04:14.781Z,79.80
2023-04-12T03:06:52.429Z,80.24
2023-04-12T03:09:20.480Z,80.62
2023-04-12T03:11:50.935Z,81.00
2023-04-12T03:14:18.602Z,81.08
2023-04-12T03:16:46.158Z,81.22
2023-04-12T03:19:14.200Z,81.17
2023-04-12T03:21:43.980Z,81.02
2023-04-12T03:24:14.988Z,80.96
2023-04-12T03:26:43.853Z,81.09
2023-04-12T03:29:11.502Z,81.04
2023-04-12T03:31:41.581Z,81.12
2023-04-12T03:34:09.141Z,80.98
2023-04-12T03:36:38.086Z,80.84
2023-04-12T03:39:05.950Z,80.49
2023-04-12T03:41:33.534Z,80.33
2023-04-12T03:44:01.088Z,80.29
2023-04-12T03:46:31.332Z,80.47
2023-04-12T03:48:59.063Z,80.60
2023-04-12T03:51:30.593Z,80.82
2023-04-12T03:53:58.478Z,81.15
2023-04-12T03:56:28.516Z,81.41
2023-04-12T03:58:57.248Z,81.82
2023-04-12T04:01:25.858Z,82.18
2023-04-12T04:03:53.657Z,82.10
2023-04-12T04:06:21.588Z,82.59
2023-04-12T04:08:49.524Z,82.92
2023-04-12T04:11:17.408Z,82.79
2023-04-12T04:13:46.685Z,81.99
2023-04-12T04:16:14.409Z,81.93
2023-04-12T04:18:41.985Z,81.46
2023-04-12T04:21:10.016Z,80.88
2023-04-12T04:23:39.530Z,80.26
2023-04-12T04:26:10.176Z,79.88
2023-04-12T04:28:45.293Z,79.29
2023-04-12T04:31:13.778Z,79.09
2023-04-12T04:33:41.803Z,78.76
2023-04-12T04:36:10.668Z,78.85
2023-04-12T04:38:40.413Z,78.91
2023-04-12T04:41:10.209Z,79.73
2023-04-12T04:43:42.636Z,80.27
2023-04-12T04:46:13.744Z,81.37
2023-04-12T04:48:41.631Z,81.45
2023-04-12T04:51:09.251Z,82.30
2023-04-12T04:53:37.313Z,82.43
2023-04-12T04:56:06.221Z,82.19
2023-04-12T04:58:36.134Z,82.16
2023-04-12T05:01:07.126Z,82.05
2023-04-12T05:03:35.153Z,81.53
2023-04-12T05:06:05.421Z,81.14
2023-04-12T05:08:33.063Z,80.55
2023-04-12T05:11:00.665Z,80.04
2023-04-12T05:13:28.255Z,79.05
2023-04-12T05:15:55.841Z,78.61
2023-04-12T05:18:23.416Z,78.32
2023-04-12T05:20:53.397Z,77.25
2023-04-12T05:23:21.044Z,76.58
2023-04-12T05:25:50.269Z,76.17
2023-04-12T05:28:18.334Z,76.19
2023-04-12T05:30:46.627Z,75.57
2023-04-12T05:33:14.341Z,75.39
2023-04-12T05:35:41.960Z,74.24
2023-04-12T05:38:09.744Z,74.60
2023-04-12T05:40:37.438Z,74.24
2023-04-12T05:43:07.505Z,73.01
2023-04-12T05:45:35.107Z,72.66
2023-04-12T05:48:05.175Z,73.04
2023-04-12T05:50:32.830Z,72.20
2023-04-12T05:53:02.496Z,71.72
2023-04-12T05:55:31.289Z,70.37
2023-04-12T05:57:59.062Z,69.74
2023-04-12T06:00:26.658Z,66.54
2023-04-12T06:02:54.993Z,62.52
2023-04-12T06:05:27.124Z,60.84
2023-04-12T06:07:59.885Z,57.51
2023-04-12T06:10:27.586Z,55.96
2023-04-12T06:12:55.200Z,51.14
2023-04-12T06:15:22.810Z,50.23
2023-04-12T06:17:51.537Z,49.67
2023-04-12T06:20:19.324Z,49.41
2023-04-12T06:22:46.909Z,46.72
2023-04-12T06:25:15.273Z,45.50
2023-04-12T06:27:45.353Z,47.08
2023-04-12T06:30:13.276Z,45.53
2023-04-12T06:32:43.517Z,43.38
2023-04-12T06:35:11.210Z,43.76
2023-04-12T06:37:38.787Z,43.16
2023-04-12T06:40:07.020Z,43.17
2023-04-12T06:42:34.604Z,41.02
2023-04-12T06:45:03.571Z,40.31
2023-04-12T06:47:33.907Z,38.91
2023-04-12T06:50:01.517Z,38.41
2023-04-12T06:52:29.109Z,38.75
2023-04-12T06:54:57.215Z,38.18
2023-04-12T06:57:24.889Z,38.45
2023-04-12T06:59:52.681Z,36.89
2023-04-12T07:02:20.759Z,36.84
2023-04-12T07:04:48.631Z,35.89
2023-04-12T07:07:20.750Z,38.15
2023-04-12T07:09:48.693Z,37.44
2023-04-12T07:12:16.415Z,38.68
2023-04-12T07:14:46.393Z,39.34
2023-04-12T07:17:14.121Z,39.89
2023-04-12T07:19:42.229Z,40.01
2023-04-12T07:22:11.970Z,40.56
2023-04-12T07:24:41.228Z,40.86
2023-04-12T07:27:08.984Z,41.27
2023-04-12T07:29:37.378Z,40.68
2023-04-12T07:32:05.513Z,40.24
2023-04-12T07:34:33.260Z,38.87
2023-04-12T07:37:01.137Z,37.35
2023-04-12T07:39:29.661Z,36.08
2023-04-12T07:41:59.925Z,35.79
2023-04-12T07:44:27.708Z,34.86
2023-04-12T07:46:55.610Z,32.91
2023-04-12T07:49:25.438Z,34.08
2023-04-12T07:51:53.236Z,32.90
2023-04-12T07:54:21.746Z,32.87
2023-04-12T07:57:04.022Z,32.75
2023-04-12T07:59:34.208Z,32.40
2023-04-12T08:02:03.177Z,31.56
2023-04-12T08:04:31.101Z,31.63
2023-04-12T08:06:58.847Z,30.95
2023-04-12T08:09:26.650Z,31.10
2023-04-12T08:11:54.422Z,30.05
2023-04-12T08:14:22.379Z,30.02
2023-04-12T08:16:50.057Z,29.78
2023-04-12T08:19:17.833Z,28.92
2023-04-12T08:21:45.675Z,29.34
2023-04-12T08:24:13.393Z,28.05
2023-04-12T08:26:41.137Z,28.92
2023-04-12T08:29:08.884Z,29.08
2023-04-12T08:31:36.857Z,27.64
2023-04-12T08:34:04.844Z,27.60
2023-04-12T08:36:32.931Z,26.13
2023-04-12T08:39:01.840Z,26.66
2023-04-12T08:41:32.922Z,26.50
2023-04-12T08:44:01.536Z,26.51
2023-04-12T08:46:38.754Z,26.10
2023-04-12T08:49:06.614Z,25.95
2023-04-12T08:51:36.304Z,25.48
2023-04-12T08:54:08.761Z,26.35
2023-04-12T08:56:37.744Z,25.74
2023-04-12T08:59:06.367Z,26.19
2023-04-12T09:01:34.614Z,25.73
2023-04-12T09:04:08.244Z,26.18
2023-04-12T09:06:41.649Z,27.24
2023-04-12T09:09:09.795Z,27.54
2023-04-12T09:11:40.108Z,27.15
2023-04-12T09:14:27.471Z,26.38
2023-04-12T09:16:55.351Z,26.77
2023-04-12T09:19:37.191Z,25.81
2023-04-12T09:22:04.982Z,25.49
2023-04-12T09:24:47.657Z,24.68
2023-04-12T09:27:15.614Z,26.37
2023-04-12T09:29:45.615Z,26.51
2023-04-12T09:32:13.276Z,26.25
2023-04-12T09:34:57.015Z,25.75
2023-04-12T09:37:27.028Z,25.67
2023-04-12T09:40:06.070Z,25.94
2023-04-12T09:42:50.046Z,25.82
2023-04-12T09:45:26.417Z,26.38
2023-04-12T09:47:55.310Z,25.92
2023-04-12T09:50:24.444Z,26.38
2023-04-12T09:52:53.732Z,26.16
2023-04-12T09:55:24.362Z,25.98
2023-04-12T09:57:54.045Z,25.07
2023-04-12T10:00:25.559Z,25.09
2023-04-12T10:02:57.031Z,25.75
2023-04-12T10:05:26.943Z,26.11
2023-04-12T10:07:56.632Z,24.90
2023-04-12T10:10:24.643Z,25.10
2023-04-12T10:12:52.827Z,26.71
2023-04-12T10:15:22.110Z,26.84
2023-04-12T10:17:54.489Z,26.11
2023-04-12T10:20:28.204Z,27.53
2023-04-12T10:22:59.280Z,29.25
2023-04-12T10:25:30.812Z,27.78
2023-04-12T10:27:59.805Z,28.79
2023-04-12T10:30:33.797Z,27.92
2023-04-12T10:33:04.160Z,26.37
2023-04-12T10:35:55.719Z,26.47
2023-04-12T10:38:32.426Z,26.31
2023-04-12T10:41:17.346Z,26.22
2023-04-12T10:43:49.275Z,25.76
2023-04-12T10:46:46.201Z,26.16
2023-04-12T10:49:17.906Z,25.51
2023-04-12T10:52:10.870Z,25.80
2023-04-12T10:54:38.944Z,25.32
2023-04-12T10:57:41.737Z,25.74
2023-04-12T11:00:12.574Z,25.19
2023-04-12T11:03:09.985Z,25.78
2023-04-12T11:05:58.785Z,25.47
2023-04-12T11:08:30.705Z,25.61
2023-04-12T11:11:19.454Z,25.36
2023-04-12T11:13:49.884Z,24.46
2023-04-12T11:16:19.949Z,24.78
2023-04-12T11:18:47.942Z,25.18
2023-04-12T11:21:16.095Z,26.10
2023-04-12T11:23:46.739Z,25.84
2023-04-12T11:26:20.931Z,26.02
2023-04-12T11:28:53.020Z,25.64
2023-04-12T11:31:23.259Z,25.82
2023-04-12T11:33:53.598Z,25.49
2023-04-12T11:36:23.598Z,26.11
2023-04-12T11:38:58.464Z,26.23
2023-04-12T11:41:26.430Z,25.69
2023-04-12T11:43:54.182Z,25.67
2023-04-12T11:46:21.917Z,25.90
2023-04-12T11:48:49.546Z,26.31
2023-04-12T11:51:25.024Z,25.51
2023-04-12T11:53:57.147Z,25.69
2023-04-12T11:56:26.056Z,24.43
2023-04-12T11:58:53.687Z,23.77
2023-04-12T12:01:24.615Z,24.67
2023-04-12T12:03:52.904Z,24.83
2023-04-12T12:06:21.764Z,25.32
2023-04-12T12:08:54.020Z,25.57
2023-04-12T12:11:23.469Z,25.11
2023-04-12T12:13:53.194Z,24.82
2023-04-12T12:16:29.262Z,25.16
2023-04-12T12:18:59.512Z,24.38
2023-04-12T12:21:28.517Z,25.28
2023-04-12T12:23:58.029Z,24.63
2023-04-12T12:26:27.993Z,24.70
2023-04-12T12:28:57.555Z,24.61
2023-04-12T12:31:28.765Z,24.72
2023-04-12T12:34:01.108Z,24.58
2023-04-12T12:36:38.896Z,24.88
2023-04-12T12:39:12.036Z,24.19
2023-04-12T12:41:42.940Z,23.34
2023-04-12T12:44:12.261Z,23.89
2023-04-12T12:46:53.355Z,24.71
2023-04-12T12:49:25.595Z,24.72
2023-04-12T12:51:53.278Z,24.68
2023-04-12T12:54:36.823Z,24.63
2023-04-12T12:57:08.721Z,24.82
2023-04-12T12:59:36.468Z,24.50
2023-04-12T13:02:09.094Z,23.82
2023-04-12T13:04:37.038Z,24.12
2023-04-12T13:07:04.872Z,24.94
2023-04-12T13:09:32.951Z,25.13
2023-04-12T13:12:00.582Z,25.96
2023-04-12T13:14:28.182Z,25.99
2023-04-12T13:16:56.400Z,26.28
2023-04-12T13:19:24.024Z,26.35
2023-04-12T13:21:53.250Z,26.32
2023-04-12T13:24:21.023Z,26.30
2023-04-12T13:26:48.615Z,26.57
2023-04-12T13:29:16.460Z,26.70
2023-04-12T13:31:44.128Z,27.08
2023-04-12T13:34:14.637Z,26.97
2023-04-12T13:36:44.584Z,27.03
2023-04-12T13:39:12.240Z,26.62
2023-04-12T13:41:40.057Z,26.75
2023-04-12T13:44:07.673Z,27.14
2023-04-12T13:46:35.593Z,27.40
2023-04-12T13:49:03.285Z,27.78
2023-04-12T13:51:32.949Z,27.55
2023-04-12T13:54:00.520Z,27.85
2023-04-12T13:56:30.965Z,27.61
2023-04-12T13:58:59.138Z,27.61
2023-04-12T14:01:27.100Z,27.90
2023-04-12T14:03:55.762Z,28.08
2023-04-12T14:06:23.530Z,28.62
2023-04-12T14:08:54.116Z,28.46
2023-04-12T14:11:24.948Z,28.21
2023-04-12T14:13:52.532Z,28.01
2023-04-12T14:16:20.161Z,28.37
2023-04-12T14:18:47.921Z,29.45
2023-04-12T14:21:15.582Z,28.61
2023-04-12T14:23:45.385Z,29.02
2023-04-12T14:26:17.102Z,28.52
2023-04-12T14:28:44.778Z,29.09
2023-04-12T14:31:14.840Z,28.94
2023-04-12T14:33:42.806Z,29.09
2023-04-12T14:36:10.936Z,28.73
2023-04-12T14:38:38.550Z,28.97
2023-04-12T14:41:09.892Z,28.80
2023-04-12T14:43:39.819Z,28.94
2023-04-12T14:46:07.711Z,29.20
2023-04-12T14:48:35.419Z,28.75
2023-04-12T14:51:03.543Z,29.22
2023-04-12T14:53:34.008Z,28.97
2023-04-12T14:56:02.629Z,28.81
2023-04-12T14:58:30.894Z,28.73
2023-04-12T15:01:01.417Z,28.62
2023-04-12T15:03:31.553Z,28.58
2023-04-12T15:06:00.345Z,28.35
2023-04-12T15:08:28.996Z,28.84
2023-04-12T15:10:56.677Z,29.36
2023-04-12T15:13:32.164Z,28.63
2023-04-12T15:16:00.507Z,28.94
2023-04-12T15:18:28.353Z,28.29
2023-04-12T15:20:59.926Z,28.28
2023-04-12T15:23:29.924Z,28.52
2023-04-12T15:26:01.149Z,29.15
2023-04-12T15:28:28.980Z,29.79
2023-04-12T15:30:57.153Z,29.79
2023-04-12T15:33:24.956Z,29.67
2023-04-12T15:35:56.436Z,29.48
2023-04-12T15:38:25.875Z,29.37
2023-04-12T15:41:02.747Z,29.64
2023-04-12T15:43:30.460Z,29.70
2023-04-12T15:45:58.285Z,30.67
2023-04-12T15:48:26.590Z,30.61
2023-04-12T15:50:56.567Z,31.31
2023-04-12T15:53:26.508Z,31.52
2023-04-12T15:55:55.136Z,32.92
2023-04-12T15:58:24.041Z,32.04
2023-04-12T16:00:54.175Z,31.85
2023-04-12T16:03:24.811Z,31.91
2023-04-12T16:05:54.994Z,31.83
2023-04-12T16:08:23.078Z,32.61
2023-04-12T16:10:53.733Z,32.47
2023-04-12T16:13:21.700Z,33.11
2023-04-12T16:15:49.326Z,32.76
2023-04-12T16:18:19.735Z,33.83
2023-04-12T16:20:47.926Z,34.09
2023-04-12T16:23:16.681Z,33.97
2023-04-12T16:25:44.267Z,33.96
2023-04-12T16:28:12.591Z,33.39
2023-04-12T16:30:41.345Z,32.46
2023-04-12T16:33:09.279Z,33.38
2023-04-12T16:35:37.035Z,33.51
2023-04-12T16:38:05.139Z,32.84
2023-04-12T16:40:33.628Z,33.05
2023-04-12T16:43:01.311Z,33.47
2023-04-12T16:45:31.197Z,33.60
2023-04-12T16:48:03.985Z,33.85
2023-04-12T16:50:32.038Z,33.52
2023-04-12T16:53:01.596Z,33.47
2023-04-12T16:55:29.976Z,33.78
2023-04-12T16:58:00.169Z,34.15
2023-04-12T17:00:29.237Z,33.78
2023-04-12T17:02:57.179Z,34.18
2023-04-12T17:05:25.529Z,34.47
2023-04-12T17:07:55.123Z,34.40
2023-04-12T17:10:24.326Z,35.40
2023-04-12T17:12:56.611Z,36.35
2023-04-12T17:15:28.048Z,38.53
2023-04-12T17:18:09.928Z,40.84
2023-04-12T17:20:38.176Z,43.04
2023-04-12T17:23:06.694Z,44.52
2023-04-12T17:25:35.013Z,44.31
2023-04-12T17:28:03.394Z,46.09
2023-04-12T17:30:31.418Z,46.46
2023-04-12T17:33:01.829Z,47.93
2023-04-12T17:35:32.177Z,47.47
2023-04-12T17:37:59.758Z,49.66
2023-04-12T17:40:29.744Z,49.61
2023-04-12T17:42:57.346Z,50.63
2023-04-12T17:45:25.169Z,51.30
2023-04-12T17:47:54.588Z,51.40
2023-04-12T17:50:22.721Z,52.00
2023-04-12T17:52:52.493Z,52.63
2023-04-12T17:55:23.537Z,53.00
2023-04-12T17:57:51.528Z,52.72
2023-04-12T18:00:23.375Z,53.17
2023-04-12T18:02:51.537Z,53.99
2023-04-12T18:05:19.538Z,54.34
2023-04-12T18:07:47.197Z,54.55
2023-04-12T18:10:20.589Z,54.70
2023-04-12T18:12:49.074Z,55.60
2023-04-12T18:15:18.147Z,55.13
2023-04-12T18:17:45.829Z,55.14
2023-04-12T18:20:16.578Z,55.72
2023-04-12T18:22:45.235Z,55.69
2023-04-12T18:25:15.841Z,55.58
2023-04-12T18:27:47.368Z,56.23
2023-04-12T18:30:17.665Z,55.92
2023-04-12T18:32:47.915Z,56.25
2023-04-12T18:35:15.864Z,56.05
2023-04-12T18:37:44.128Z,56.05
2023-04-12T18:40:15.967Z,55.95
2023-04-12T18:42:45.400Z,56.00
2023-04-12T18:45:13.181Z,55.94
2023-04-12T18:47:40.785Z,55.73
2023-04-12T18:50:11.528Z,56.26
2023-04-12T18:52:41.888Z,56.26
2023-04-12T18:55:09.734Z,56.55
2023-04-12T18:57:37.397Z,57.13
2023-04-12T19:00:11.707Z,58.02
2023-04-12T19:02:39.428Z,58.45
2023-04-12T19:05:07.521Z,58.08
2023-04-12T19:07:35.342Z,58.43
2023-04-12T19:10:05.693Z,58.43
2023-04-12T19:12:33.446Z,58.59
2023-04-12T19:15:01.734Z,59.29
2023-04-12T19:17:30.584Z,59.19
2023-04-12T19:19:58.329Z,59.53
2023-04-12T19:22:28.170Z,59.47
2023-04-12T19:25:00.505Z,59.95
2023-04-12T19:27:28.159Z,60.05
2023-04-12T19:29:55.732Z,60.26
2023-04-12T19:32:23.440Z,59.51
2023-04-12T19:34:51.671Z,58.04
2023-04-12T19:37:19.314Z,59.71
2023-04-12T19:39:46.906Z,59.56
2023-04-12T19:42:15.824Z,59.93
2023-04-12T19:44:43.856Z,60.49
2023-04-12T19:47:11.512Z,60.67
2023-04-12T19:49:42.387Z,61.16
2023-04-12T19:52:11.092Z,61.83
2023-04-12T19:54:39.541Z,61.31
2023-04-12T19:57:09.742Z,61.70
2023-04-12T19:59:37.473Z,62.46
2023-04-12T20:02:05.112Z,62.24
2023-04-12T20:04:33.216Z,62.52
2023-04-12T20:07:01.313Z,61.89
2023-04-12T20:09:29.133Z,62.53
2023-04-12T20:11:57.309Z,62.35
2023-04-12T20:14:26.828Z,62.47
2023-04-12T20:16:58.022Z,62.44
2023-04-12T20:19:26.516Z,63.13
2023-04-12T20:22:02.117Z,63.31
2023-04-12T20:24:30.464Z,63.88
2023-04-12T20:27:03.681Z,63.29
2023-04-12T20:29:36.153Z,63.52
2023-04-12T20:32:04.300Z,64.38
2023-04-12T20:34:31.987Z,63.71
2023-04-12T20:37:00.000Z,63.93
2023-04-12T20:39:29.570Z,64.16
2023-04-12T20:42:01.171Z,65.38
2023-04-12T20:44:31.360Z,65.22
2023-04-12T20:46:59.518Z,64.90
2023-04-12T20:49:27.848Z,65.67
2023-04-12T20:51:56.861Z,65.30
2023-04-12T20:54:25.394Z,65.76
2023-04-12T20:56:54.188Z,66.01
2023-04-12T20:59:22.991Z,65.74
2023-04-12T21:01:51.667Z,65.62
2023-04-12T21:04:22.552Z,65.59
2023-04-12T21:06:50.740Z,66.36
2023-04-12T21:09:18.508Z,66.35
2023-04-12T21:11:49.070Z,66.33
2023-04-12T21:14:16.676Z,66.99
2023-04-12T21:16:44.271Z,66.45
2023-04-12T21:19:12.848Z,66.78
2023-04-12T21:21:41.229Z,66.48
2023-04-12T21:24:08.972Z,67.22
2023-04-12T21:26:36.702Z,66.97
2023-04-12T21:29:04.357Z,67.34
2023-04-12T21:31:32.640Z,67.22
2023-04-12T21:34:02.222Z,66.80
2023-04-12T21:36:30.428Z,67.32
2023-04-12T21:39:01.438Z,66.37
2023-04-12T21:41:29.673Z,67.41
2023-04-12T21:43:57.280Z,67.67
2023-04-12T21:46:27.393Z,66.95
2023-04-12T21:48:55.369Z,67.60
2023-04-12T21:51:24.758Z,67.58
2023-04-12T21:53:53.428Z,67.87
2023-04-12T21:56:21.273Z,67.94
2023-04-12T21:58:52.390Z,68.55
2023-04-12T22:01:20.031Z,68.55
2023-04-12T22:03:50.290Z,68.64
2023-04-12T22:06:20.611Z,68.37
2023-04-12T22:08:50.792Z,68.86
2023-04-12T22:11:18.515Z,68.18
2023-04-12T22:13:46.846Z,67.92
2023-04-12T22:16:16.821Z,67.42
2023-04-12T22:18:45.601Z,67.56
2023-04-12T22:21:16.648Z,67.66
2023-04-12T22:23:45.766Z,67.58
2023-04-12T22:26:13.701Z,67.81
2023-04-12T22:28:42.595Z,67.54
2023-04-12T22:31:16.059Z,68.49
2023-04-12T22:33:47.781Z,68.27
2023-04-12T22:36:15.540Z,68.61
2023-04-12T22:38:43.116Z,68.58
2023-04-12T22:41:11.006Z,68.73
2023-04-12T22:43:42.062Z,69.03
2023-04-12T22:46:15.765Z,68.80
2023-04-12T22:48:45.958Z,69.20
2023-04-12T22:51:14.087Z,68.81
2023-04-12T22:53:41.944Z,68.17
2023-04-12T22:56:11.920Z,68.80
2023-04-12T22:58:40.381Z,68.81
2023-04-12T23:01:08.561Z,68.44
2023-04-12T23:03:36.606Z,68.48
2023-04-12T23:06:05.156Z,68.74
2023-04-12T23:08:32.771Z,69.00
2023-04-12T23:11:04.660Z,68.43
2023-04-12T23:13:37.864Z,68.15
2023-04-12T23:16:08.297Z,68.38
2023-04-12T23:18:38.828Z,67.72
2023-04-12T23:21:06.677Z,67.97
2023-04-12T23:23:34.252Z,68.06
2023-04-12T23:26:01.926Z,67.40
2023-04-12T23:28:29.648Z,67.20
2023-04-12T23:31:01.910Z,67.80
2023-04-12T23:33:29.643Z,67.71
2023-04-12T23:35:57.292Z,67.37
2023-04-12T23:38:27.078Z,68.19
2023-04-12T23:40:57.117Z,68.54
2023-04-12T23:43:28.239Z,68.73
2023-04-12T23:45:56.742Z,67.69
2023-04-12T23:48:27.332Z,67.58
2023-04-12T23:50:55.100Z,68.25
2023-04-12T23:53:23.027Z,67.43
2023-04-12T23:55:54.314Z,67.57
2023-04-12T23:58:22.025Z,68.53
